sensor_id;sensor_type;location;lat;lon;timestamp;P1;durP1;ratioP1;P2;durP2;ratioP2
920;SDS011;447;51.332;6.778;2024-02-26T00:01:03;2.77;;;2.57;;
920;SDS011;447;51.332;6.778;2024-02-26T00:03:30;2.83;;;2.63;;
920;SDS011;447;51.332;6.778;2024-02-26T00:05:59;2.83;;;2.50;;
920;SDS011;447;51.332;6.778;2024-02-26T00:08:25;2.60;;;2.33;;
920;SDS011;447;51.332;6.778;2024-02-26T00:10:53;2.37;;;2.27;;
920;SDS011;447;51.332;6.778;2024-02-26T00:13:22;2.57;;;2.37;;
920;SDS011;447;51.332;6.778;2024-02-26T00:15:50;2.90;;;2.70;;
920;SDS011;447;51.332;6.778;2024-02-26T00:18:16;2.83;;;2.60;;
920;SDS011;447;51.332;6.778;2024-02-26T00:20:43;3.17;;;2.90;;
920;SDS011;447;51.332;6.778;2024-02-26T00:23:09;2.80;;;2.60;;
920;SDS011;447;51.332;6.778;2024-02-26T00:25:35;3.00;;;2.80;;
920;SDS011;447;51.332;6.778;2024-02-26T00:28:03;2.87;;;2.67;;
920;SDS011;447;51.332;6.778;2024-02-26T00:30:30;3.77;;;2.07;;
920;SDS011;447;51.332;6.778;2024-02-26T00:32:56;2.60;;;2.40;;
920;SDS011;447;51.332;6.778;2024-02-26T00:35:22;2.70;;;2.20;;
920;SDS011;447;51.332;6.778;2024-02-26T00:37:50;2.80;;;2.60;;
920;SDS011;447;51.332;6.778;2024-02-26T00:40:17;2.50;;;2.30;;
920;SDS011;447;51.332;6.778;2024-02-26T00:42:45;2.67;;;2.43;;
920;SDS011;447;51.332;6.778;2024-02-26T00:45:13;2.90;;;2.70;;
920;SDS011;447;51.332;6.778;2024-02-26T00:47:42;2.70;;;2.50;;
920;SDS011;447;51.332;6.778;2024-02-26T00:50:12;2.33;;;2.13;;
920;SDS011;447;51.332;6.778;2024-02-26T00:52:43;2.63;;;2.43;;
920;SDS011;447;51.332;6.778;2024-02-26T00:55:09;2.50;;;2.30;;
920;SDS011;447;51.332;6.778;2024-02-26T00:57:35;2.50;;;2.30;;
920;SDS011;447;51.332;6.778;2024-02-26T01:00:03;3.37;;;2.80;;
920;SDS011;447;51.332;6.778;2024-02-26T01:02:36;2.33;;;2.23;;
920;SDS011;447;51.332;6.778;2024-02-26T01:05:03;4.50;;;2.50;;
920;SDS011;447;51.332;6.778;2024-02-26T01:07:34;2.50;;;2.30;;
920;SDS011;447;51.332;6.778;2024-02-26T01:10:01;2.40;;;2.30;;
920;SDS011;447;51.332;6.778;2024-02-26T01:12:28;2.57;;;2.37;;
920;SDS011;447;51.332;6.778;2024-02-26T01:14:54;3.60;;;2.60;;
920;SDS011;447;51.332;6.778;2024-02-26T01:17:20;2.40;;;2.30;;
920;SDS011;447;51.332;6.778;2024-02-26T01:19:46;2.40;;;2.20;;
920;SDS011;447;51.332;6.778;2024-02-26T01:22:15;6.20;;;2.47;;
920;SDS011;447;51.332;6.778;2024-02-26T01:24:41;2.50;;;2.30;;
920;SDS011;447;51.332;6.778;2024-02-26T01:27:08;2.67;;;2.40;;
920;SDS011;447;51.332;6.778;2024-02-26T01:29:34;2.43;;;2.20;;
920;SDS011;447;51.332;6.778;2024-02-26T01:32:00;2.57;;;2.40;;
920;SDS011;447;51.332;6.778;2024-02-26T01:34:31;2.50;;;2.30;;
920;SDS011;447;51.332;6.778;2024-02-26T01:36:57;2.43;;;2.23;;
920;SDS011;447;51.332;6.778;2024-02-26T01:39:23;2.70;;;2.50;;
920;SDS011;447;51.332;6.778;2024-02-26T01:41:52;2.50;;;2.13;;
920;SDS011;447;51.332;6.778;2024-02-26T01:44:17;2.70;;;2.50;;
920;SDS011;447;51.332;6.778;2024-02-26T01:46:46;2.60;;;2.13;;
920;SDS011;447;51.332;6.778;2024-02-26T01:49:15;2.70;;;2.50;;
920;SDS011;447;51.332;6.778;2024-02-26T01:51:41;2.53;;;2.33;;
920;SDS011;447;51.332;6.778;2024-02-26T01:54:09;2.90;;;2.70;;
920;SDS011;447;51.332;6.778;2024-02-26T01:56:36;2.60;;;2.40;;
920;SDS011;447;51.332;6.778;2024-02-26T01:59:05;2.90;;;2.70;;
920;SDS011;447;51.332;6.778;2024-02-26T02:01:35;2.77;;;2.57;;
920;SDS011;447;51.332;6.778;2024-02-26T02:04:03;3.30;;;2.47;;
920;SDS011;447;51.332;6.778;2024-02-26T02:06:29;2.80;;;2.60;;
920;SDS011;447;51.332;6.778;2024-02-26T02:08:56;2.43;;;2.33;;
920;SDS011;447;51.332;6.778;2024-02-26T02:11:22;4.47;;;2.80;;
920;SDS011;447;51.332;6.778;2024-02-26T02:13:48;4.03;;;2.60;;
920;SDS011;447;51.332;6.778;2024-02-26T02:21:12;2.50;;;2.40;;
920;SDS011;447;51.332;6.778;2024-02-26T02:23:39;2.40;;;2.20;;
920;SDS011;447;51.332;6.778;2024-02-26T02:26:04;3.00;;;2.70;;
920;SDS011;447;51.332;6.778;2024-02-26T02:28:31;3.70;;;3.40;;
920;SDS011;447;51.332;6.778;2024-02-26T02:30:57;2.93;;;2.73;;
920;SDS011;447;51.332;6.778;2024-02-26T02:33:23;2.50;;;2.30;;
920;SDS011;447;51.332;6.778;2024-02-26T02:35:51;2.90;;;2.60;;
920;SDS011;447;51.332;6.778;2024-02-26T02:38:19;2.77;;;2.57;;
920;SDS011;447;51.332;6.778;2024-02-26T02:40:49;2.60;;;2.40;;
920;SDS011;447;51.332;6.778;2024-02-26T02:43:15;2.90;;;2.60;;
920;SDS011;447;51.332;6.778;2024-02-26T02:45:41;2.80;;;2.60;;
920;SDS011;447;51.332;6.778;2024-02-26T02:48:12;2.80;;;2.60;;
920;SDS011;447;51.332;6.778;2024-02-26T02:50:38;2.77;;;2.33;;
920;SDS011;447;51.332;6.778;2024-02-26T02:53:04;2.70;;;2.50;;
920;SDS011;447;51.332;6.778;2024-02-26T02:55:33;2.80;;;2.50;;
920;SDS011;447;51.332;6.778;2024-02-26T02:58:06;2.43;;;2.30;;
920;SDS011;447;51.332;6.778;2024-02-26T03:00:32;2.83;;;2.53;;
920;SDS011;447;51.332;6.778;2024-02-26T03:02:58;2.77;;;2.57;;
920;SDS011;447;51.332;6.778;2024-02-26T03:05:26;3.00;;;2.70;;
920;SDS011;447;51.332;6.778;2024-02-26T03:07:55;3.00;;;2.80;;
920;SDS011;447;51.332;6.778;2024-02-26T03:10:21;2.83;;;2.63;;
920;SDS011;447;51.332;6.778;2024-02-26T03:12:49;2.27;;;2.10;;
920;SDS011;447;51.332;6.778;2024-02-26T03:15:15;2.80;;;2.60;;
920;SDS011;447;51.332;6.778;2024-02-26T03:17:41;2.60;;;2.50;;
920;SDS011;447;51.332;6.778;2024-02-26T03:20:10;2.60;;;2.30;;
920;SDS011;447;51.332;6.778;2024-02-26T03:22:38;2.70;;;2.43;;
920;SDS011;447;51.332;6.778;2024-02-26T03:25:06;2.30;;;2.10;;
920;SDS011;447;51.332;6.778;2024-02-26T03:27:33;2.83;;;2.63;;
920;SDS011;447;51.332;6.778;2024-02-26T03:30:01;2.17;;;2.03;;
920;SDS011;447;51.332;6.778;2024-02-26T03:32:29;3.13;;;2.23;;
920;SDS011;447;51.332;6.778;2024-02-26T03:34:55;3.10;;;2.40;;
920;SDS011;447;51.332;6.778;2024-02-26T03:37:21;2.47;;;2.27;;
920;SDS011;447;51.332;6.778;2024-02-26T03:39:47;2.80;;;2.60;;
920;SDS011;447;51.332;6.778;2024-02-26T03:42:13;2.60;;;2.40;;
920;SDS011;447;51.332;6.778;2024-02-26T03:44:39;2.50;;;2.13;;
920;SDS011;447;51.332;6.778;2024-02-26T03:47:06;2.57;;;2.37;;
920;SDS011;447;51.332;6.778;2024-02-26T03:49:32;3.10;;;2.90;;
920;SDS011;447;51.332;6.778;2024-02-26T03:52:00;3.33;;;2.83;;
920;SDS011;447;51.332;6.778;2024-02-26T03:54:26;3.40;;;2.30;;
920;SDS011;447;51.332;6.778;2024-02-26T03:56:52;3.90;;;2.40;;
920;SDS011;447;51.332;6.778;2024-02-26T03:59:18;2.37;;;2.17;;
920;SDS011;447;51.332;6.778;2024-02-26T04:01:45;2.63;;;2.43;;
920;SDS011;447;51.332;6.778;2024-02-26T04:04:14;2.73;;;2.53;;
920;SDS011;447;51.332;6.778;2024-02-26T04:06:44;2.63;;;2.43;;
920;SDS011;447;51.332;6.778;2024-02-26T04:09:13;3.13;;;2.93;;
920;SDS011;447;51.332;6.778;2024-02-26T04:11:39;4.03;;;2.20;;
920;SDS011;447;51.332;6.778;2024-02-26T04:14:05;3.23;;;2.93;;
920;SDS011;447;51.332;6.778;2024-02-26T04:16:36;2.63;;;2.43;;
920;SDS011;447;51.332;6.778;2024-02-26T04:19:05;3.10;;;2.90;;
920;SDS011;447;51.332;6.778;2024-02-26T04:21:32;2.90;;;2.60;;
920;SDS011;447;51.332;6.778;2024-02-26T04:23:58;2.80;;;2.60;;
920;SDS011;447;51.332;6.778;2024-02-26T04:26:30;3.10;;;2.90;;
920;SDS011;447;51.332;6.778;2024-02-26T04:28:56;3.07;;;2.77;;
920;SDS011;447;51.332;6.778;2024-02-26T04:31:21;3.30;;;2.93;;
920;SDS011;447;51.332;6.778;2024-02-26T04:33:47;2.73;;;2.53;;
920;SDS011;447;51.332;6.778;2024-02-26T04:36:17;2.80;;;2.60;;
920;SDS011;447;51.332;6.778;2024-02-26T04:38:46;2.70;;;2.50;;
920;SDS011;447;51.332;6.778;2024-02-26T04:41:12;2.50;;;2.30;;
920;SDS011;447;51.332;6.778;2024-02-26T04:43:40;3.30;;;3.00;;
920;SDS011;447;51.332;6.778;2024-02-26T04:46:07;4.90;;;2.60;;
920;SDS011;447;51.332;6.778;2024-02-26T04:48:38;2.93;;;2.73;;
920;SDS011;447;51.332;6.778;2024-02-26T04:51:05;2.70;;;2.50;;
920;SDS011;447;51.332;6.778;2024-02-26T04:53:34;2.50;;;2.30;;
920;SDS011;447;51.332;6.778;2024-02-26T04:56:00;2.90;;;2.70;;
920;SDS011;447;51.332;6.778;2024-02-26T04:58:26;3.30;;;2.60;;
920;SDS011;447;51.332;6.778;2024-02-26T05:00:52;4.63;;;2.77;;
920;SDS011;447;51.332;6.778;2024-02-26T05:03:18;3.40;;;3.10;;
920;SDS011;447;51.332;6.778;2024-02-26T05:05:44;2.67;;;2.47;;
920;SDS011;447;51.332;6.778;2024-02-26T05:08:11;2.67;;;2.47;;
920;SDS011;447;51.332;6.778;2024-02-26T05:10:37;3.33;;;2.73;;
920;SDS011;447;51.332;6.778;2024-02-26T05:13:06;2.50;;;2.33;;
920;SDS011;447;51.332;6.778;2024-02-26T05:15:32;3.00;;;2.50;;
920;SDS011;447;51.332;6.778;2024-02-26T05:18:01;3.00;;;2.80;;
920;SDS011;447;51.332;6.778;2024-02-26T05:20:28;2.60;;;2.40;;
920;SDS011;447;51.332;6.778;2024-02-26T05:22:56;2.90;;;2.70;;
920;SDS011;447;51.332;6.778;2024-02-26T05:25:27;3.07;;;2.83;;
920;SDS011;447;51.332;6.778;2024-02-26T05:27:53;3.10;;;2.90;;
920;SDS011;447;51.332;6.778;2024-02-26T05:30:19;2.90;;;2.60;;
920;SDS011;447;51.332;6.778;2024-02-26T05:32:45;2.83;;;2.60;;
920;SDS011;447;51.332;6.778;2024-02-26T05:35:11;2.67;;;2.43;;
920;SDS011;447;51.332;6.778;2024-02-26T05:37:37;3.17;;;2.97;;
920;SDS011;447;51.332;6.778;2024-02-26T05:40:03;3.40;;;3.10;;
920;SDS011;447;51.332;6.778;2024-02-26T05:42:31;3.10;;;2.90;;
920;SDS011;447;51.332;6.778;2024-02-26T05:44:57;2.73;;;2.53;;
920;SDS011;447;51.332;6.778;2024-02-26T05:47:23;3.20;;;2.90;;
920;SDS011;447;51.332;6.778;2024-02-26T05:49:49;3.80;;;2.67;;
920;SDS011;447;51.332;6.778;2024-02-26T05:52:17;2.80;;;2.60;;
920;SDS011;447;51.332;6.778;2024-02-26T05:54:43;3.17;;;2.97;;
920;SDS011;447;51.332;6.778;2024-02-26T05:57:09;3.27;;;2.97;;
920;SDS011;447;51.332;6.778;2024-02-26T05:59:43;2.90;;;2.70;;
920;SDS011;447;51.332;6.778;2024-02-26T06:02:10;3.70;;;3.40;;
920;SDS011;447;51.332;6.778;2024-02-26T06:04:36;3.60;;;2.97;;
920;SDS011;447;51.332;6.778;2024-02-26T06:07:02;4.00;;;3.37;;
920;SDS011;447;51.332;6.778;2024-02-26T06:09:28;3.00;;;2.80;;
920;SDS011;447;51.332;6.778;2024-02-26T06:11:54;3.73;;;3.37;;
920;SDS011;447;51.332;6.778;2024-02-26T06:14:20;3.30;;;3.00;;
920;SDS011;447;51.332;6.778;2024-02-26T06:16:47;3.90;;;3.60;;
920;SDS011;447;51.332;6.778;2024-02-26T06:19:13;3.17;;;2.97;;
920;SDS011;447;51.332;6.778;2024-02-26T06:21:42;3.87;;;3.47;;
920;SDS011;447;51.332;6.778;2024-02-26T06:24:08;3.40;;;3.10;;
920;SDS011;447;51.332;6.778;2024-02-26T06:26:34;3.70;;;3.40;;
920;SDS011;447;51.332;6.778;2024-02-26T06:29:00;3.47;;;3.17;;
920;SDS011;447;51.332;6.778;2024-02-26T06:31:29;3.80;;;3.13;;
920;SDS011;447;51.332;6.778;2024-02-26T06:33:55;3.50;;;3.30;;
920;SDS011;447;51.332;6.778;2024-02-26T06:36:22;3.70;;;3.40;;
920;SDS011;447;51.332;6.778;2024-02-26T06:38:48;4.77;;;2.80;;
920;SDS011;447;51.332;6.778;2024-02-26T06:41:14;3.50;;;3.23;;
920;SDS011;447;51.332;6.778;2024-02-26T06:43:40;3.47;;;3.17;;
920;SDS011;447;51.332;6.778;2024-02-26T06:46:06;4.30;;;3.50;;
920;SDS011;447;51.332;6.778;2024-02-26T06:48:33;3.47;;;3.17;;
920;SDS011;447;51.332;6.778;2024-02-26T06:51:01;6.10;;;3.20;;
920;SDS011;447;51.332;6.778;2024-02-26T06:53:27;3.50;;;3.30;;
920;SDS011;447;51.332;6.778;2024-02-26T06:55:54;3.20;;;2.90;;
920;SDS011;447;51.332;6.778;2024-02-26T06:58:22;3.83;;;3.53;;
920;SDS011;447;51.332;6.778;2024-02-26T07:00:49;3.20;;;3.00;;
920;SDS011;447;51.332;6.778;2024-02-26T07:03:17;9.33;;;3.50;;
920;SDS011;447;51.332;6.778;2024-02-26T07:05:43;3.80;;;3.57;;
920;SDS011;447;51.332;6.778;2024-02-26T07:08:10;3.10;;;2.67;;
920;SDS011;447;51.332;6.778;2024-02-26T07:10:36;5.20;;;2.70;;
920;SDS011;447;51.332;6.778;2024-02-26T07:13:02;3.30;;;3.00;;
920;SDS011;447;51.332;6.778;2024-02-26T07:15:29;3.43;;;2.90;;
920;SDS011;447;51.332;6.778;2024-02-26T07:17:55;4.00;;;3.10;;
920;SDS011;447;51.332;6.778;2024-02-26T07:20:24;3.27;;;3.07;;
920;SDS011;447;51.332;6.778;2024-02-26T07:22:50;3.27;;;2.97;;
920;SDS011;447;51.332;6.778;2024-02-26T07:25:16;3.20;;;2.90;;
920;SDS011;447;51.332;6.778;2024-02-26T07:27:47;3.50;;;3.00;;
920;SDS011;447;51.332;6.778;2024-02-26T07:30:13;3.43;;;3.23;;
920;SDS011;447;51.332;6.778;2024-02-26T07:32:40;3.10;;;2.80;;
920;SDS011;447;51.332;6.778;2024-02-26T07:35:06;7.47;;;3.27;;
920;SDS011;447;51.332;6.778;2024-02-26T07:37:33;3.30;;;2.80;;
920;SDS011;447;51.332;6.778;2024-02-26T07:39:59;4.40;;;2.73;;
920;SDS011;447;51.332;6.778;2024-02-26T07:42:25;3.20;;;2.90;;
920;SDS011;447;51.332;6.778;2024-02-26T07:44:54;3.57;;;3.27;;
920;SDS011;447;51.332;6.778;2024-02-26T07:47:21;3.83;;;3.40;;
920;SDS011;447;51.332;6.778;2024-02-26T07:49:51;3.10;;;2.87;;
920;SDS011;447;51.332;6.778;2024-02-26T07:52:21;2.60;;;2.40;;
920;SDS011;447;51.332;6.778;2024-02-26T07:54:47;3.43;;;3.13;;
920;SDS011;447;51.332;6.778;2024-02-26T07:57:15;3.67;;;3.40;;
920;SDS011;447;51.332;6.778;2024-02-26T07:59:42;3.80;;;3.30;;
920;SDS011;447;51.332;6.778;2024-02-26T08:02:10;3.60;;;3.30;;
920;SDS011;447;51.332;6.778;2024-02-26T08:04:36;3.07;;;2.80;;
920;SDS011;447;51.332;6.778;2024-02-26T08:07:02;3.07;;;2.70;;
920;SDS011;447;51.332;6.778;2024-02-26T08:09:28;3.23;;;2.93;;
920;SDS011;447;51.332;6.778;2024-02-26T08:11:54;3.93;;;2.60;;
920;SDS011;447;51.332;6.778;2024-02-26T08:14:21;3.87;;;2.57;;
920;SDS011;447;51.332;6.778;2024-02-26T08:16:47;3.77;;;2.90;;
920;SDS011;447;51.332;6.778;2024-02-26T08:19:13;2.70;;;2.43;;
920;SDS011;447;51.332;6.778;2024-02-26T08:21:43;3.87;;;3.57;;
920;SDS011;447;51.332;6.778;2024-02-26T08:24:09;3.50;;;3.20;;
920;SDS011;447;51.332;6.778;2024-02-26T08:26:37;7.77;;;3.07;;
920;SDS011;447;51.332;6.778;2024-02-26T08:29:08;3.37;;;2.93;;
920;SDS011;447;51.332;6.778;2024-02-26T08:31:34;3.33;;;2.63;;
920;SDS011;447;51.332;6.778;2024-02-26T08:34:05;3.53;;;3.23;;
920;SDS011;447;51.332;6.778;2024-02-26T08:36:33;3.10;;;2.87;;
920;SDS011;447;51.332;6.778;2024-02-26T08:39:00;3.60;;;3.10;;
920;SDS011;447;51.332;6.778;2024-02-26T08:41:26;3.60;;;3.30;;
920;SDS011;447;51.332;6.778;2024-02-26T08:43:53;4.03;;;3.10;;
920;SDS011;447;51.332;6.778;2024-02-26T08:46:20;5.30;;;2.87;;
920;SDS011;447;51.332;6.778;2024-02-26T08:48:46;2.73;;;2.50;;
920;SDS011;447;51.332;6.778;2024-02-26T08:51:12;3.60;;;3.30;;
920;SDS011;447;51.332;6.778;2024-02-26T08:53:38;3.10;;;2.77;;
920;SDS011;447;51.332;6.778;2024-02-26T08:56:05;3.00;;;2.80;;
920;SDS011;447;51.332;6.778;2024-02-26T08:58:31;4.47;;;3.00;;
920;SDS011;447;51.332;6.778;2024-02-26T09:00:57;3.60;;;3.30;;
920;SDS011;447;51.332;6.778;2024-02-26T09:03:26;3.53;;;3.20;;
920;SDS011;447;51.332;6.778;2024-02-26T09:05:52;3.20;;;2.90;;
920;SDS011;447;51.332;6.778;2024-02-26T09:08:18;3.93;;;3.40;;
920;SDS011;447;51.332;6.778;2024-02-26T09:10:44;4.23;;;3.47;;
920;SDS011;447;51.332;6.778;2024-02-26T09:13:10;3.53;;;3.23;;
920;SDS011;447;51.332;6.778;2024-02-26T09:15:36;3.50;;;3.20;;
920;SDS011;447;51.332;6.778;2024-02-26T09:18:02;3.47;;;3.17;;
920;SDS011;447;51.332;6.778;2024-02-26T09:20:30;3.60;;;3.27;;
920;SDS011;447;51.332;6.778;2024-02-26T09:22:56;2.83;;;2.63;;
920;SDS011;447;51.332;6.778;2024-02-26T09:25:22;3.23;;;2.90;;
920;SDS011;447;51.332;6.778;2024-02-26T09:27:48;3.10;;;2.80;;
920;SDS011;447;51.332;6.778;2024-02-26T09:30:16;5.27;;;2.80;;
920;SDS011;447;51.332;6.778;2024-02-26T09:32:45;3.60;;;3.10;;
920;SDS011;447;51.332;6.778;2024-02-26T09:35:12;4.77;;;2.83;;
920;SDS011;447;51.332;6.778;2024-02-26T09:37:38;3.37;;;3.07;;
920;SDS011;447;51.332;6.778;2024-02-26T09:40:05;3.43;;;3.13;;
920;SDS011;447;51.332;6.778;2024-02-26T09:42:31;4.00;;;2.70;;
920;SDS011;447;51.332;6.778;2024-02-26T09:44:59;4.87;;;3.17;;
920;SDS011;447;51.332;6.778;2024-02-26T09:47:31;3.30;;;3.00;;
920;SDS011;447;51.332;6.778;2024-02-26T09:49:58;3.60;;;3.30;;
920;SDS011;447;51.332;6.778;2024-02-26T09:52:27;3.03;;;2.83;;
920;SDS011;447;51.332;6.778;2024-02-26T09:54:56;3.93;;;3.53;;
920;SDS011;447;51.332;6.778;2024-02-26T09:57:22;3.50;;;3.20;;
920;SDS011;447;51.332;6.778;2024-02-26T09:59:50;3.50;;;2.67;;
920;SDS011;447;51.332;6.778;2024-02-26T10:02:24;3.33;;;3.03;;
920;SDS011;447;51.332;6.778;2024-02-26T10:04:51;3.20;;;2.90;;
920;SDS011;447;51.332;6.778;2024-02-26T10:07:21;3.50;;;3.17;;
920;SDS011;447;51.332;6.778;2024-02-26T10:09:48;3.33;;;3.03;;
920;SDS011;447;51.332;6.778;2024-02-26T10:12:17;3.23;;;2.93;;
920;SDS011;447;51.332;6.778;2024-02-26T10:14:44;3.20;;;2.87;;
920;SDS011;447;51.332;6.778;2024-02-26T10:17:10;3.17;;;2.97;;
920;SDS011;447;51.332;6.778;2024-02-26T10:19:40;3.40;;;2.90;;
920;SDS011;447;51.332;6.778;2024-02-26T10:22:09;3.43;;;3.13;;
920;SDS011;447;51.332;6.778;2024-02-26T10:24:35;3.67;;;3.37;;
920;SDS011;447;51.332;6.778;2024-02-26T10:27:04;3.70;;;3.33;;
920;SDS011;447;51.332;6.778;2024-02-26T10:29:33;2.80;;;2.60;;
920;SDS011;447;51.332;6.778;2024-02-26T10:32:02;4.50;;;3.17;;
920;SDS011;447;51.332;6.778;2024-02-26T10:34:29;3.57;;;3.27;;
920;SDS011;447;51.332;6.778;2024-02-26T10:36:56;3.23;;;2.93;;
920;SDS011;447;51.332;6.778;2024-02-26T10:39:29;3.30;;;3.00;;
920;SDS011;447;51.332;6.778;2024-02-26T10:41:55;5.10;;;3.63;;
920;SDS011;447;51.332;6.778;2024-02-26T10:44:21;3.23;;;2.90;;
920;SDS011;447;51.332;6.778;2024-02-26T10:46:47;4.60;;;3.50;;
920;SDS011;447;51.332;6.778;2024-02-26T10:49:18;4.63;;;3.53;;
920;SDS011;447;51.332;6.778;2024-02-26T10:51:45;3.87;;;3.40;;
920;SDS011;447;51.332;6.778;2024-02-26T10:54:18;3.30;;;2.77;;
920;SDS011;447;51.332;6.778;2024-02-26T10:56:45;3.33;;;3.03;;
920;SDS011;447;51.332;6.778;2024-02-26T10:59:13;4.10;;;3.30;;
920;SDS011;447;51.332;6.778;2024-02-26T11:01:47;3.47;;;3.00;;
920;SDS011;447;51.332;6.778;2024-02-26T11:04:15;3.73;;;3.43;;
920;SDS011;447;51.332;6.778;2024-02-26T11:06:42;3.37;;;3.07;;
920;SDS011;447;51.332;6.778;2024-02-26T11:09:11;4.47;;;3.60;;
920;SDS011;447;51.332;6.778;2024-02-26T11:11:39;3.63;;;3.33;;
920;SDS011;447;51.332;6.778;2024-02-26T11:14:08;3.90;;;3.50;;
920;SDS011;447;51.332;6.778;2024-02-26T11:16:35;4.33;;;3.93;;
920;SDS011;447;51.332;6.778;2024-02-26T11:19:06;5.30;;;4.27;;
920;SDS011;447;51.332;6.778;2024-02-26T11:21:35;4.23;;;3.83;;
920;SDS011;447;51.332;6.778;2024-02-26T11:24:05;6.20;;;3.90;;
920;SDS011;447;51.332;6.778;2024-02-26T11:26:34;3.77;;;3.40;;
920;SDS011;447;51.332;6.778;2024-02-26T11:29:05;4.17;;;3.20;;
920;SDS011;447;51.332;6.778;2024-02-26T11:31:36;4.37;;;3.97;;
920;SDS011;447;51.332;6.778;2024-02-26T11:34:03;5.07;;;3.67;;
920;SDS011;447;51.332;6.778;2024-02-26T11:36:30;3.77;;;3.33;;
920;SDS011;447;51.332;6.778;2024-02-26T11:38:58;4.10;;;3.80;;
920;SDS011;447;51.332;6.778;2024-02-26T11:41:25;3.87;;;3.57;;
920;SDS011;447;51.332;6.778;2024-02-26T11:43:53;4.03;;;3.63;;
920;SDS011;447;51.332;6.778;2024-02-26T11:46:30;4.23;;;3.70;;
920;SDS011;447;51.332;6.778;2024-02-26T11:51:57;4.17;;;3.60;;
920;SDS011;447;51.332;6.778;2024-02-26T11:59:56;4.93;;;3.80;;
920;SDS011;447;51.332;6.778;2024-02-26T12:02:46;3.80;;;3.50;;
920;SDS011;447;51.332;6.778;2024-02-26T12:05:16;4.53;;;3.93;;
920;SDS011;447;51.332;6.778;2024-02-26T12:07:51;4.40;;;3.93;;
920;SDS011;447;51.332;6.778;2024-02-26T12:12:59;4.43;;;3.40;;
920;SDS011;447;51.332;6.778;2024-02-26T12:16:10;4.80;;;4.30;;
920;SDS011;447;51.332;6.778;2024-02-26T12:18:17;4.70;;;3.60;;
920;SDS011;447;51.332;6.778;2024-02-26T12:20:44;4.83;;;4.20;;
920;SDS011;447;51.332;6.778;2024-02-26T12:23:14;4.20;;;3.40;;
920;SDS011;447;51.332;6.778;2024-02-26T12:25:45;4.67;;;4.17;;
920;SDS011;447;51.332;6.778;2024-02-26T12:28:16;4.07;;;3.70;;
920;SDS011;447;51.332;6.778;2024-02-26T12:30:42;4.53;;;4.10;;
920;SDS011;447;51.332;6.778;2024-02-26T12:33:10;4.73;;;4.33;;
920;SDS011;447;51.332;6.778;2024-02-26T12:35:39;4.47;;;3.80;;
920;SDS011;447;51.332;6.778;2024-02-26T12:38:05;4.40;;;3.93;;
920;SDS011;447;51.332;6.778;2024-02-26T12:40:31;4.30;;;3.80;;
920;SDS011;447;51.332;6.778;2024-02-26T12:43:00;5.03;;;3.70;;
920;SDS011;447;51.332;6.778;2024-02-26T12:45:27;3.93;;;3.53;;
920;SDS011;447;51.332;6.778;2024-02-26T12:47:53;3.90;;;3.47;;
920;SDS011;447;51.332;6.778;2024-02-26T12:50:19;4.23;;;3.83;;
920;SDS011;447;51.332;6.778;2024-02-26T12:52:46;4.23;;;3.40;;
920;SDS011;447;51.332;6.778;2024-02-26T12:55:17;4.80;;;3.97;;
920;SDS011;447;51.332;6.778;2024-02-26T12:57:47;4.30;;;3.90;;
920;SDS011;447;51.332;6.778;2024-02-26T13:00:16;5.60;;;3.63;;
920;SDS011;447;51.332;6.778;2024-02-26T13:02:47;4.10;;;3.80;;
920;SDS011;447;51.332;6.778;2024-02-26T13:05:15;4.57;;;3.70;;
920;SDS011;447;51.332;6.778;2024-02-26T13:07:44;4.23;;;3.60;;
920;SDS011;447;51.332;6.778;2024-02-26T13:10:18;4.00;;;3.70;;
920;SDS011;447;51.332;6.778;2024-02-26T13:12:50;4.87;;;4.47;;
920;SDS011;447;51.332;6.778;2024-02-26T13:15:17;4.73;;;4.13;;
920;SDS011;447;51.332;6.778;2024-02-26T13:17:44;4.60;;;4.20;;
920;SDS011;447;51.332;6.778;2024-02-26T13:20:11;4.90;;;4.33;;
920;SDS011;447;51.332;6.778;2024-02-26T13:22:41;4.93;;;4.43;;
920;SDS011;447;51.332;6.778;2024-02-26T13:25:07;5.67;;;4.53;;
920;SDS011;447;51.332;6.778;2024-02-26T13:27:33;4.50;;;4.10;;
920;SDS011;447;51.332;6.778;2024-02-26T13:30:11;6.00;;;4.10;;
920;SDS011;447;51.332;6.778;2024-02-26T13:32:39;6.10;;;4.57;;
920;SDS011;447;51.332;6.778;2024-02-26T13:35:09;5.20;;;4.60;;
920;SDS011;447;51.332;6.778;2024-02-26T13:37:38;4.90;;;4.30;;
920;SDS011;447;51.332;6.778;2024-02-26T13:40:08;6.07;;;5.13;;
920;SDS011;447;51.332;6.778;2024-02-26T13:42:36;6.60;;;4.57;;
920;SDS011;447;51.332;6.778;2024-02-26T13:45:08;7.17;;;5.40;;
920;SDS011;447;51.332;6.778;2024-02-26T13:47:38;7.77;;;5.67;;
920;SDS011;447;51.332;6.778;2024-02-26T13:50:08;5.47;;;4.97;;
920;SDS011;447;51.332;6.778;2024-02-26T13:52:34;5.40;;;4.63;;
920;SDS011;447;51.332;6.778;2024-02-26T13:55:04;7.20;;;5.47;;
920;SDS011;447;51.332;6.778;2024-02-26T13:57:31;6.47;;;5.00;;
920;SDS011;447;51.332;6.778;2024-02-26T14:00:00;6.47;;;5.63;;
920;SDS011;447;51.332;6.778;2024-02-26T14:02:28;6.10;;;5.50;;
920;SDS011;447;51.332;6.778;2024-02-26T14:04:54;7.40;;;5.03;;
920;SDS011;447;51.332;6.778;2024-02-26T14:07:20;5.33;;;4.83;;
920;SDS011;447;51.332;6.778;2024-02-26T14:09:46;6.67;;;5.27;;
920;SDS011;447;51.332;6.778;2024-02-26T14:12:12;6.30;;;4.93;;
920;SDS011;447;51.332;6.778;2024-02-26T14:14:39;5.20;;;4.73;;
920;SDS011;447;51.332;6.778;2024-02-26T14:17:08;6.13;;;5.10;;
920;SDS011;447;51.332;6.778;2024-02-26T14:19:34;6.20;;;5.17;;
920;SDS011;447;51.332;6.778;2024-02-26T14:22:00;7.30;;;5.90;;
920;SDS011;447;51.332;6.778;2024-02-26T14:24:26;8.13;;;5.63;;
920;SDS011;447;51.332;6.778;2024-02-26T14:26:55;5.83;;;5.10;;
920;SDS011;447;51.332;6.778;2024-02-26T14:29:24;6.33;;;5.27;;
920;SDS011;447;51.332;6.778;2024-02-26T14:31:49;6.47;;;5.07;;
920;SDS011;447;51.332;6.778;2024-02-26T14:34:18;6.03;;;5.07;;
920;SDS011;447;51.332;6.778;2024-02-26T14:36:44;5.90;;;5.27;;
920;SDS011;447;51.332;6.778;2024-02-26T14:39:12;5.80;;;5.30;;
920;SDS011;447;51.332;6.778;2024-02-26T14:41:42;6.37;;;5.23;;
920;SDS011;447;51.332;6.778;2024-02-26T14:44:08;5.87;;;5.27;;
920;SDS011;447;51.332;6.778;2024-02-26T14:46:35;6.73;;;5.77;;
920;SDS011;447;51.332;6.778;2024-02-26T14:49:04;6.70;;;5.30;;
920;SDS011;447;51.332;6.778;2024-02-26T14:51:33;6.70;;;5.40;;
920;SDS011;447;51.332;6.778;2024-02-26T14:54:01;5.60;;;4.70;;
920;SDS011;447;51.332;6.778;2024-02-26T14:56:30;7.60;;;5.43;;
920;SDS011;447;51.332;6.778;2024-02-26T14:58:58;5.97;;;5.37;;
920;SDS011;447;51.332;6.778;2024-02-26T15:01:24;5.40;;;4.90;;
920;SDS011;447;51.332;6.778;2024-02-26T15:03:51;6.20;;;5.60;;
920;SDS011;447;51.332;6.778;2024-02-26T15:06:21;5.57;;;5.07;;
920;SDS011;447;51.332;6.778;2024-02-26T15:08:48;6.20;;;4.47;;
920;SDS011;447;51.332;6.778;2024-02-26T15:11:19;6.73;;;5.30;;
920;SDS011;447;51.332;6.778;2024-02-26T15:13:47;6.90;;;4.83;;
920;SDS011;447;51.332;6.778;2024-02-26T15:16:17;6.03;;;5.37;;
920;SDS011;447;51.332;6.778;2024-02-26T15:18:47;4.10;;;3.77;;
920;SDS011;447;51.332;6.778;2024-02-26T15:21:13;5.90;;;5.30;;
920;SDS011;447;51.332;6.778;2024-02-26T15:23:42;5.00;;;4.30;;
920;SDS011;447;51.332;6.778;2024-02-26T15:26:10;5.10;;;4.70;;
920;SDS011;447;51.332;6.778;2024-02-26T15:28:36;4.90;;;4.50;;
920;SDS011;447;51.332;6.778;2024-02-26T15:31:02;6.47;;;4.77;;
920;SDS011;447;51.332;6.778;2024-02-26T15:33:29;4.97;;;4.47;;
920;SDS011;447;51.332;6.778;2024-02-26T15:35:55;7.37;;;4.90;;
920;SDS011;447;51.332;6.778;2024-02-26T15:38:21;4.83;;;4.43;;
920;SDS011;447;51.332;6.778;2024-02-26T15:40:49;4.67;;;4.23;;
920;SDS011;447;51.332;6.778;2024-02-26T15:43:18;5.43;;;4.90;;
920;SDS011;447;51.332;6.778;2024-02-26T15:45:48;4.50;;;4.13;;
920;SDS011;447;51.332;6.778;2024-02-26T15:48:14;5.00;;;4.50;;
920;SDS011;447;51.332;6.778;2024-02-26T15:50:41;5.27;;;4.73;;
920;SDS011;447;51.332;6.778;2024-02-26T15:53:08;6.27;;;4.40;;
920;SDS011;447;51.332;6.778;2024-02-26T15:55:34;4.80;;;4.13;;
920;SDS011;447;51.332;6.778;2024-02-26T15:58:01;4.57;;;4.20;;
920;SDS011;447;51.332;6.778;2024-02-26T16:00:27;4.77;;;4.30;;
920;SDS011;447;51.332;6.778;2024-02-26T16:02:55;4.00;;;3.70;;